sensor_id;sensor_type;location;lat;lon;timestamp;P1;durP1;ratioP1;P2;durP2;ratioP2
36315;SDS011;22343;50.820;2.666;2023-06-10T00:02:18;25.63;;;20.08;;
36315;SDS011;22343;50.820;2.666;2023-06-10T00:05:04;23.60;;;20.20;;
36315;SDS011;22343;50.820;2.666;2023-06-10T00:07:50;21.75;;;19.45;;
36315;SDS011;22343;50.820;2.666;2023-06-10T00:10:37;24.83;;;20.02;;
36315;SDS011;22343;50.820;2.666;2023-06-10T00:13:23;23.00;;;20.08;;
36315;SDS011;22343;50.820;2.666;2023-06-10T00:16:09;22.17;;;19.95;;
36315;SDS011;22343;50.820;2.666;2023-06-10T00:18:55;23.88;;;20.30;;
36315;SDS011;22343;50.820;2.666;2023-06-10T00:21:45;24.33;;;20.73;;
36315;SDS011;22343;50.820;2.666;2023-06-10T00:24:31;25.27;;;21.08;;
36315;SDS011;22343;50.820;2.666;2023-06-10T00:27:16;23.88;;;20.60;;
36315;SDS011;22343;50.820;2.666;2023-06-10T00:30:02;24.60;;;20.67;;
36315;SDS011;22343;50.820;2.666;2023-06-10T00:32:50;23.00;;;20.60;;
36315;SDS011;22343;50.820;2.666;2023-06-10T00:35:35;23.08;;;20.13;;
36315;SDS011;22343;50.820;2.666;2023-06-10T00:38:21;25.15;;;20.88;;
36315;SDS011;22343;50.820;2.666;2023-06-10T00:41:07;22.70;;;20.40;;
36315;SDS011;22343;50.820;2.666;2023-06-10T00:43:53;24.80;;;20.67;;
36315;SDS011;22343;50.820;2.666;2023-06-10T00:46:39;25.75;;;21.58;;
36315;SDS011;22343;50.820;2.666;2023-06-10T00:49:24;24.55;;;21.77;;
36315;SDS011;22343;50.820;2.666;2023-06-10T00:52:10;24.77;;;20.33;;
36315;SDS011;22343;50.820;2.666;2023-06-10T00:54:55;23.77;;;20.48;;
36315;SDS011;22343;50.820;2.666;2023-06-10T00:57:41;25.67;;;21.15;;
36315;SDS011;22343;50.820;2.666;2023-06-10T01:00:28;23.90;;;20.65;;
36315;SDS011;22343;50.820;2.666;2023-06-10T01:03:14;22.25;;;19.95;;
36315;SDS011;22343;50.820;2.666;2023-06-10T01:06:06;24.92;;;20.98;;
36315;SDS011;22343;50.820;2.666;2023-06-10T01:15:20;22.35;;;20.08;;
36315;SDS011;22343;50.820;2.666;2023-06-10T01:18:10;22.73;;;20.40;;
36315;SDS011;22343;50.820;2.666;2023-06-10T01:21:00;21.95;;;19.65;;
36315;SDS011;22343;50.820;2.666;2023-06-10T01:23:47;23.70;;;18.92;;
36315;SDS011;22343;50.820;2.666;2023-06-10T01:26:33;21.85;;;19.48;;
36315;SDS011;22343;50.820;2.666;2023-06-10T01:29:20;21.58;;;19.45;;
36315;SDS011;22343;50.820;2.666;2023-06-10T01:32:17;21.48;;;19.27;;
36315;SDS011;22343;50.820;2.666;2023-06-10T01:35:05;21.60;;;19.30;;
36315;SDS011;22343;50.820;2.666;2023-06-10T01:37:51;21.90;;;19.60;;
36315;SDS011;22343;50.820;2.666;2023-06-10T01:40:39;23.17;;;20.10;;
36315;SDS011;22343;50.820;2.666;2023-06-10T01:43:24;22.45;;;20.05;;
36315;SDS011;22343;50.820;2.666;2023-06-10T01:46:11;22.23;;;19.60;;
36315;SDS011;22343;50.820;2.666;2023-06-10T01:48:55;21.45;;;19.30;;
36315;SDS011;22343;50.820;2.666;2023-06-10T01:51:41;22.13;;;19.90;;
36315;SDS011;22343;50.820;2.666;2023-06-10T01:54:26;21.58;;;19.38;;
36315;SDS011;22343;50.820;2.666;2023-06-10T01:57:12;20.60;;;18.50;;
36315;SDS011;22343;50.820;2.666;2023-06-10T01:59:58;20.65;;;18.65;;
36315;SDS011;22343;50.820;2.666;2023-06-10T02:02:43;20.73;;;18.40;;
36315;SDS011;22343;50.820;2.666;2023-06-10T02:05:29;21.73;;;18.42;;
36315;SDS011;22343;50.820;2.666;2023-06-10T02:08:13;21.48;;;18.20;;
36315;SDS011;22343;50.820;2.666;2023-06-10T02:10:58;20.55;;;18.45;;
36315;SDS011;22343;50.820;2.666;2023-06-10T02:13:44;20.50;;;18.30;;
36315;SDS011;22343;50.820;2.666;2023-06-10T02:16:28;21.00;;;18.90;;
36315;SDS011;22343;50.820;2.666;2023-06-10T02:19:13;20.73;;;18.73;;
36315;SDS011;22343;50.820;2.666;2023-06-10T02:21:57;20.92;;;18.52;;
36315;SDS011;22343;50.820;2.666;2023-06-10T02:24:43;20.65;;;18.48;;
36315;SDS011;22343;50.820;2.666;2023-06-10T02:27:28;21.00;;;18.88;;
36315;SDS011;22343;50.820;2.666;2023-06-10T02:30:14;20.77;;;18.55;;
36315;SDS011;22343;50.820;2.666;2023-06-10T02:33:00;21.00;;;18.90;;
36315;SDS011;22343;50.820;2.666;2023-06-10T02:35:45;20.83;;;18.73;;
36315;SDS011;22343;50.820;2.666;2023-06-10T02:38:31;20.00;;;17.92;;
36315;SDS011;22343;50.820;2.666;2023-06-10T02:41:17;25.77;;;18.33;;
36315;SDS011;22343;50.820;2.666;2023-06-10T02:44:01;20.58;;;17.83;;
36315;SDS011;22343;50.820;2.666;2023-06-10T02:46:47;19.98;;;17.90;;
36315;SDS011;22343;50.820;2.666;2023-06-10T02:49:33;18.98;;;17.17;;
36315;SDS011;22343;50.820;2.666;2023-06-10T02:52:18;19.52;;;17.63;;
36315;SDS011;22343;50.820;2.666;2023-06-10T02:55:02;19.73;;;17.73;;
36315;SDS011;22343;50.820;2.666;2023-06-10T02:57:48;19.17;;;17.38;;
36315;SDS011;22343;50.820;2.666;2023-06-10T03:00:34;19.27;;;17.38;;
36315;SDS011;22343;50.820;2.666;2023-06-10T03:03:22;19.58;;;17.58;;
36315;SDS011;22343;50.820;2.666;2023-06-10T03:06:08;19.52;;;17.45;;
36315;SDS011;22343;50.820;2.666;2023-06-10T03:08:55;19.00;;;17.20;;
36315;SDS011;22343;50.820;2.666;2023-06-10T03:11:40;18.80;;;16.92;;
36315;SDS011;22343;50.820;2.666;2023-06-10T03:14:26;20.45;;;18.27;;
36315;SDS011;22343;50.820;2.666;2023-06-10T03:17:12;19.73;;;17.63;;
36315;SDS011;22343;50.820;2.666;2023-06-10T03:19:57;19.15;;;17.35;;
36315;SDS011;22343;50.820;2.666;2023-06-10T03:22:43;20.20;;;17.83;;
36315;SDS011;22343;50.820;2.666;2023-06-10T03:25:28;20.05;;;17.70;;
36315;SDS011;22343;50.820;2.666;2023-06-10T03:28:14;19.33;;;17.42;;
36315;SDS011;22343;50.820;2.666;2023-06-10T03:31:00;20.60;;;18.33;;
36315;SDS011;22343;50.820;2.666;2023-06-10T03:33:44;20.13;;;18.23;;
36315;SDS011;22343;50.820;2.666;2023-06-10T03:36:30;20.45;;;18.30;;
36315;SDS011;22343;50.820;2.666;2023-06-10T03:39:15;20.00;;;18.02;;
36315;SDS011;22343;50.820;2.666;2023-06-10T03:42:01;20.38;;;17.55;;
36315;SDS011;22343;50.820;2.666;2023-06-10T03:44:47;19.08;;;17.17;;
36315;SDS011;22343;50.820;2.666;2023-06-10T03:47:36;19.60;;;17.60;;
36315;SDS011;22343;50.820;2.666;2023-06-10T03:50:22;19.67;;;17.60;;
36315;SDS011;22343;50.820;2.666;2023-06-10T03:53:08;20.73;;;18.63;;
36315;SDS011;22343;50.820;2.666;2023-06-10T03:55:53;19.95;;;17.92;;
36315;SDS011;22343;50.820;2.666;2023-06-10T03:58:39;19.10;;;17.40;;
36315;SDS011;22343;50.820;2.666;2023-06-10T04:01:23;21.35;;;17.35;;
36315;SDS011;22343;50.820;2.666;2023-06-10T04:04:09;18.80;;;17.10;;
36315;SDS011;22343;50.820;2.666;2023-06-10T04:06:55;18.35;;;16.70;;
36315;SDS011;22343;50.820;2.666;2023-06-10T04:09:41;19.33;;;17.48;;
36315;SDS011;22343;50.820;2.666;2023-06-10T04:12:26;19.80;;;17.75;;
36315;SDS011;22343;50.820;2.666;2023-06-10T04:15:12;18.80;;;16.80;;
36315;SDS011;22343;50.820;2.666;2023-06-10T04:17:59;20.27;;;18.17;;
36315;SDS011;22343;50.820;2.666;2023-06-10T04:20:46;20.13;;;17.98;;
36315;SDS011;22343;50.820;2.666;2023-06-10T04:23:30;20.20;;;18.15;;
36315;SDS011;22343;50.820;2.666;2023-06-10T04:26:14;20.45;;;18.25;;
36315;SDS011;22343;50.820;2.666;2023-06-10T04:29:00;19.85;;;17.70;;
36315;SDS011;22343;50.820;2.666;2023-06-10T04:31:46;18.80;;;16.90;;
36315;SDS011;22343;50.820;2.666;2023-06-10T04:34:31;19.70;;;17.80;;
36315;SDS011;22343;50.820;2.666;2023-06-10T04:37:16;19.20;;;17.23;;
36315;SDS011;22343;50.820;2.666;2023-06-10T04:40:00;20.50;;;18.42;;
36315;SDS011;22343;50.820;2.666;2023-06-10T04:42:46;19.70;;;17.70;;
36315;SDS011;22343;50.820;2.666;2023-06-10T04:45:31;20.60;;;18.58;;
36315;SDS011;22343;50.820;2.666;2023-06-10T04:48:16;19.50;;;17.48;;
36315;SDS011;22343;50.820;2.666;2023-06-10T04:51:02;21.67;;;17.27;;
36315;SDS011;22343;50.820;2.666;2023-06-10T04:53:47;18.85;;;17.05;;
36315;SDS011;22343;50.820;2.666;2023-06-10T04:56:32;19.45;;;17.48;;
36315;SDS011;22343;50.820;2.666;2023-06-10T04:59:18;20.33;;;17.63;;
36315;SDS011;22343;50.820;2.666;2023-06-10T05:02:05;19.05;;;17.15;;
36315;SDS011;22343;50.820;2.666;2023-06-10T05:04:51;19.55;;;17.52;;
36315;SDS011;22343;50.820;2.666;2023-06-10T05:07:37;18.75;;;16.85;;
36315;SDS011;22343;50.820;2.666;2023-06-10T05:10:23;19.42;;;16.45;;
36315;SDS011;22343;50.820;2.666;2023-06-10T05:13:09;18.52;;;16.63;;
36315;SDS011;22343;50.820;2.666;2023-06-10T05:15:55;18.77;;;16.77;;
36315;SDS011;22343;50.820;2.666;2023-06-10T05:18:40;16.98;;;15.27;;
36315;SDS011;22343;50.820;2.666;2023-06-10T05:21:26;16.95;;;15.35;;
36315;SDS011;22343;50.820;2.666;2023-06-10T05:24:12;16.92;;;15.32;;
36315;SDS011;22343;50.820;2.666;2023-06-10T05:26:56;17.75;;;15.95;;
36315;SDS011;22343;50.820;2.666;2023-06-10T05:29:41;17.20;;;15.40;;
36315;SDS011;22343;50.820;2.666;2023-06-10T05:32:25;16.77;;;15.18;;
36315;SDS011;22343;50.820;2.666;2023-06-10T05:35:09;17.02;;;15.32;;
36315;SDS011;22343;50.820;2.666;2023-06-10T05:37:55;17.08;;;15.48;;
36315;SDS011;22343;50.820;2.666;2023-06-10T05:40:40;16.27;;;14.57;;
36315;SDS011;22343;50.820;2.666;2023-06-10T05:43:25;15.88;;;14.27;;
36315;SDS011;22343;50.820;2.666;2023-06-10T05:46:11;15.93;;;14.32;;
36315;SDS011;22343;50.820;2.666;2023-06-10T05:48:57;15.10;;;13.60;;
36315;SDS011;22343;50.820;2.666;2023-06-10T05:51:42;15.52;;;14.10;;
36315;SDS011;22343;50.820;2.666;2023-06-10T05:54:27;14.25;;;12.93;;
36315;SDS011;22343;50.820;2.666;2023-06-10T05:57:11;15.07;;;13.52;;
36315;SDS011;22343;50.820;2.666;2023-06-10T05:59:56;13.80;;;12.38;;
36315;SDS011;22343;50.820;2.666;2023-06-10T06:02:40;14.05;;;12.65;;
36315;SDS011;22343;50.820;2.666;2023-06-10T06:05:25;13.95;;;12.57;;
36315;SDS011;22343;50.820;2.666;2023-06-10T06:08:10;13.68;;;12.48;;
36315;SDS011;22343;50.820;2.666;2023-06-10T06:10:56;14.25;;;12.93;;
36315;SDS011;22343;50.820;2.666;2023-06-10T06:13:41;14.75;;;13.02;;
36315;SDS011;22343;50.820;2.666;2023-06-10T06:16:26;14.10;;;12.40;;
36315;SDS011;22343;50.820;2.666;2023-06-10T06:19:12;13.57;;;12.15;;
36315;SDS011;22343;50.820;2.666;2023-06-10T06:21:56;12.70;;;11.55;;
36315;SDS011;22343;50.820;2.666;2023-06-10T06:24:42;12.68;;;11.48;;
36315;SDS011;22343;50.820;2.666;2023-06-10T06:27:27;13.15;;;11.88;;
36315;SDS011;22343;50.820;2.666;2023-06-10T06:30:12;13.27;;;11.95;;
36315;SDS011;22343;50.820;2.666;2023-06-10T06:32:58;12.65;;;11.48;;
36315;SDS011;22343;50.820;2.666;2023-06-10T06:35:42;13.48;;;12.07;;
36315;SDS011;22343;50.820;2.666;2023-06-10T06:38:27;13.52;;;12.32;;
36315;SDS011;22343;50.820;2.666;2023-06-10T06:41:13;13.55;;;12.20;;
36315;SDS011;22343;50.820;2.666;2023-06-10T06:43:59;12.77;;;11.48;;
36315;SDS011;22343;50.820;2.666;2023-06-10T06:46:45;13.20;;;12.10;;
36315;SDS011;22343;50.820;2.666;2023-06-10T06:49:30;13.13;;;11.93;;
36315;SDS011;22343;50.820;2.666;2023-06-10T06:52:16;12.65;;;11.25;;
36315;SDS011;22343;50.820;2.666;2023-06-10T06:55:02;13.25;;;11.90;;
36315;SDS011;22343;50.820;2.666;2023-06-10T06:57:48;13.10;;;11.75;;
36315;SDS011;22343;50.820;2.666;2023-06-10T07:00:34;12.75;;;11.55;;
36315;SDS011;22343;50.820;2.666;2023-06-10T07:03:19;13.15;;;11.25;;
36315;SDS011;22343;50.820;2.666;2023-06-10T07:06:04;12.35;;;11.25;;
36315;SDS011;22343;50.820;2.666;2023-06-10T07:08:50;12.15;;;10.95;;
36315;SDS011;22343;50.820;2.666;2023-06-10T07:11:36;12.18;;;11.15;;
36315;SDS011;22343;50.820;2.666;2023-06-10T07:14:21;12.50;;;11.38;;
36315;SDS011;22343;50.820;2.666;2023-06-10T07:17:06;11.95;;;10.77;;
36315;SDS011;22343;50.820;2.666;2023-06-10T07:19:52;12.40;;;11.23;;
36315;SDS011;22343;50.820;2.666;2023-06-10T07:22:37;12.25;;;11.05;;
36315;SDS011;22343;50.820;2.666;2023-06-10T07:25:23;11.75;;;10.70;;
36315;SDS011;22343;50.820;2.666;2023-06-10T07:28:09;11.50;;;10.23;;
36315;SDS011;22343;50.820;2.666;2023-06-10T07:30:54;12.30;;;10.50;;
36315;SDS011;22343;50.820;2.666;2023-06-10T07:33:41;11.45;;;10.25;;
36315;SDS011;22343;50.820;2.666;2023-06-10T07:36:27;11.40;;;10.23;;
36315;SDS011;22343;50.820;2.666;2023-06-10T07:39:14;11.82;;;10.70;;
36315;SDS011;22343;50.820;2.666;2023-06-10T07:42:00;10.60;;;9.60;;
36315;SDS011;22343;50.820;2.666;2023-06-10T07:44:47;10.98;;;9.88;;
36315;SDS011;22343;50.820;2.666;2023-06-10T07:47:32;10.98;;;9.98;;
36315;SDS011;22343;50.820;2.666;2023-06-10T07:50:17;11.13;;;10.13;;
36315;SDS011;22343;50.820;2.666;2023-06-10T07:53:01;11.27;;;10.18;;
36315;SDS011;22343;50.820;2.666;2023-06-10T07:55:46;10.60;;;9.65;;
36315;SDS011;22343;50.820;2.666;2023-06-10T07:58:31;10.73;;;9.73;;
36315;SDS011;22343;50.820;2.666;2023-06-10T08:01:15;10.70;;;9.70;;
36315;SDS011;22343;50.820;2.666;2023-06-10T08:03:59;10.98;;;9.98;;
36315;SDS011;22343;50.820;2.666;2023-06-10T08:06:44;10.77;;;9.77;;
36315;SDS011;22343;50.820;2.666;2023-06-10T08:09:29;11.80;;;10.30;;
36315;SDS011;22343;50.820;2.666;2023-06-10T08:12:13;10.48;;;9.50;;
36315;SDS011;22343;50.820;2.666;2023-06-10T08:14:59;11.18;;;10.02;;
36315;SDS011;22343;50.820;2.666;2023-06-10T08:17:45;10.85;;;9.75;;
36315;SDS011;22343;50.820;2.666;2023-06-10T08:20:29;11.02;;;10.02;;
36315;SDS011;22343;50.820;2.666;2023-06-10T08:23:14;10.30;;;9.30;;
36315;SDS011;22343;50.820;2.666;2023-06-10T08:25:58;11.05;;;10.05;;
36315;SDS011;22343;50.820;2.666;2023-06-10T08:28:42;11.07;;;9.98;;
36315;SDS011;22343;50.820;2.666;2023-06-10T08:31:27;10.98;;;9.98;;
36315;SDS011;22343;50.820;2.666;2023-06-10T08:34:11;10.77;;;9.75;;
36315;SDS011;22343;50.820;2.666;2023-06-10T08:36:55;10.50;;;9.52;;
36315;SDS011;22343;50.820;2.666;2023-06-10T08:39:40;10.50;;;9.52;;
36315;SDS011;22343;50.820;2.666;2023-06-10T08:42:39;11.10;;;10.10;;
36315;SDS011;22343;50.820;2.666;2023-06-10T08:45:25;10.45;;;9.45;;
36315;SDS011;22343;50.820;2.666;2023-06-10T08:48:13;10.18;;;9.27;;
36315;SDS011;22343;50.820;2.666;2023-06-10T08:51:00;11.43;;;10.25;;
36315;SDS011;22343;50.820;2.666;2023-06-10T08:53:53;11.05;;;10.05;;
36315;SDS011;22343;50.820;2.666;2023-06-10T08:57:03;10.32;;;9.52;;
36315;SDS011;22343;50.820;2.666;2023-06-10T08:59:50;10.90;;;9.95;;
36315;SDS011;22343;50.820;2.666;2023-06-10T09:02:35;10.15;;;9.13;;
36315;SDS011;22343;50.820;2.666;2023-06-10T09:05:21;10.00;;;9.10;;
36315;SDS011;22343;50.820;2.666;2023-06-10T09:08:06;10.88;;;9.05;;
36315;SDS011;22343;50.820;2.666;2023-06-10T09:10:51;10.50;;;9.55;;
36315;SDS011;22343;50.820;2.666;2023-06-10T09:13:36;10.02;;;9.13;;
36315;SDS011;22343;50.820;2.666;2023-06-10T09:16:21;9.57;;;8.70;;
36315;SDS011;22343;50.820;2.666;2023-06-10T09:19:05;10.43;;;9.45;;
36315;SDS011;22343;50.820;2.666;2023-06-10T09:21:52;10.48;;;9.25;;
36315;SDS011;22343;50.820;2.666;2023-06-10T09:24:36;10.48;;;9.52;;
36315;SDS011;22343;50.820;2.666;2023-06-10T09:27:20;10.10;;;9.10;;
36315;SDS011;22343;50.820;2.666;2023-06-10T09:30:05;11.07;;;9.85;;
36315;SDS011;22343;50.820;2.666;2023-06-10T09:32:50;10.13;;;9.23;;
36315;SDS011;22343;50.820;2.666;2023-06-10T09:35:36;9.93;;;9.00;;
36315;SDS011;22343;50.820;2.666;2023-06-10T09:38:20;10.05;;;9.07;;
36315;SDS011;22343;50.820;2.666;2023-06-10T09:41:05;9.30;;;8.50;;
36315;SDS011;22343;50.820;2.666;2023-06-10T09:43:50;10.27;;;9.27;;
36315;SDS011;22343;50.820;2.666;2023-06-10T09:46:34;10.00;;;9.05;;
36315;SDS011;22343;50.820;2.666;2023-06-10T09:49:19;9.43;;;8.50;;
36315;SDS011;22343;50.820;2.666;2023-06-10T09:52:04;9.80;;;9.00;;
36315;SDS011;22343;50.820;2.666;2023-06-10T09:54:50;9.75;;;8.75;;
36315;SDS011;22343;50.820;2.666;2023-06-10T09:57:35;10.55;;;9.55;;
36315;SDS011;22343;50.820;2.666;2023-06-10T10:00:21;10.20;;;9.23;;
36315;SDS011;22343;50.820;2.666;2023-06-10T10:03:06;9.38;;;8.63;;
36315;SDS011;22343;50.820;2.666;2023-06-10T10:05:57;10.23;;;9.20;;
36315;SDS011;22343;50.820;2.666;2023-06-10T10:08:43;9.73;;;8.82;;
36315;SDS011;22343;50.820;2.666;2023-06-10T10:11:27;9.75;;;8.85;;
36315;SDS011;22343;50.820;2.666;2023-06-10T10:14:12;9.82;;;8.90;;
36315;SDS011;22343;50.820;2.666;2023-06-10T10:16:58;9.88;;;9.00;;
36315;SDS011;22343;50.820;2.666;2023-06-10T10:19:48;10.02;;;9.23;;
36315;SDS011;22343;50.820;2.666;2023-06-10T10:22:38;11.52;;;9.05;;
36315;SDS011;22343;50.820;2.666;2023-06-10T10:25:28;9.63;;;8.82;;
36315;SDS011;22343;50.820;2.666;2023-06-10T10:28:14;10.05;;;9.15;;
36315;SDS011;22343;50.820;2.666;2023-06-10T10:31:00;9.70;;;8.90;;
36315;SDS011;22343;50.820;2.666;2023-06-10T10:33:54;9.48;;;8.57;;
36315;SDS011;22343;50.820;2.666;2023-06-10T10:36:40;9.30;;;8.50;;
36315;SDS011;22343;50.820;2.666;2023-06-10T10:39:25;9.57;;;8.55;;
36315;SDS011;22343;50.820;2.666;2023-06-10T10:42:12;8.82;;;8.02;;
36315;SDS011;22343;50.820;2.666;2023-06-10T10:44:56;9.35;;;8.50;;
36315;SDS011;22343;50.820;2.666;2023-06-10T10:47:41;10.00;;;9.07;;
36315;SDS011;22343;50.820;2.666;2023-06-10T10:50:28;11.32;;;9.88;;
36315;SDS011;22343;50.820;2.666;2023-06-10T10:53:19;10.35;;;9.35;;
36315;SDS011;22343;50.820;2.666;2023-06-10T10:59:10;10.23;;;9.02;;
36315;SDS011;22343;50.820;2.666;2023-06-10T11:01:57;9.40;;;8.50;;
36315;SDS011;22343;50.820;2.666;2023-06-10T11:04:46;9.98;;;8.75;;
36315;SDS011;22343;50.820;2.666;2023-06-10T11:07:31;9.82;;;8.90;;
36315;SDS011;22343;50.820;2.666;2023-06-10T11:10:16;10.13;;;9.23;;
36315;SDS011;22343;50.820;2.666;2023-06-10T11:13:08;9.98;;;9.13;;
36315;SDS011;22343;50.820;2.666;2023-06-10T11:15:56;10.05;;;9.15;;
36315;SDS011;22343;50.820;2.666;2023-06-10T11:18:41;9.63;;;8.75;;
36315;SDS011;22343;50.820;2.666;2023-06-10T11:21:26;8.45;;;7.75;;
36315;SDS011;22343;50.820;2.666;2023-06-10T11:24:13;8.38;;;7.57;;
36315;SDS011;22343;50.820;2.666;2023-06-10T11:32:50;8.18;;;7.40;;
36315;SDS011;22343;50.820;2.666;2023-06-10T11:35:38;8.40;;;7.70;;
36315;SDS011;22343;50.820;2.666;2023-06-10T11:38:23;8.43;;;7.40;;
36315;SDS011;22343;50.820;2.666;2023-06-10T11:41:08;8.20;;;7.50;;
36315;SDS011;22343;50.820;2.666;2023-06-10T11:43:55;8.82;;;7.30;;
36315;SDS011;22343;50.820;2.666;2023-06-10T11:46:41;9.32;;;7.80;;
36315;SDS011;22343;50.820;2.666;2023-06-10T11:49:28;8.45;;;7.68;;
36315;SDS011;22343;50.820;2.666;2023-06-10T11:52:13;8.25;;;7.30;;
36315;SDS011;22343;50.820;2.666;2023-06-10T11:54:57;8.38;;;7.18;;
36315;SDS011;22343;50.820;2.666;2023-06-10T11:57:41;7.22;;;6.60;;
36315;SDS011;22343;50.820;2.666;2023-06-10T12:00:26;8.13;;;6.85;;
36315;SDS011;22343;50.820;2.666;2023-06-10T12:03:10;7.50;;;6.70;;
36315;SDS011;22343;50.820;2.666;2023-06-10T12:08:43;7.43;;;6.65;;
36315;SDS011;22343;50.820;2.666;2023-06-10T12:11:27;8.23;;;6.97;;
36315;SDS011;22343;50.820;2.666;2023-06-10T12:14:14;7.00;;;6.40;;
36315;SDS011;22343;50.820;2.666;2023-06-10T12:16:58;7.22;;;6.55;;
36315;SDS011;22343;50.820;2.666;2023-06-10T12:19:43;6.80;;;6.20;;
36315;SDS011;22343;50.820;2.666;2023-06-10T12:22:49;9.52;;;6.57;;
36315;SDS011;22343;50.820;2.666;2023-06-10T12:25:33;7.15;;;6.45;;
36315;SDS011;22343;50.820;2.666;2023-06-10T12:28:25;7.38;;;6.68;;
36315;SDS011;22343;50.820;2.666;2023-06-10T12:31:10;7.78;;;6.35;;
36315;SDS011;22343;50.820;2.666;2023-06-10T12:34:07;8.00;;;6.43;;
36315;SDS011;22343;50.820;2.666;2023-06-10T12:36:53;7.22;;;6.57;;
36315;SDS011;22343;50.820;2.666;2023-06-10T12:39:39;6.97;;;6.28;;
36315;SDS011;22343;50.820;2.666;2023-06-10T12:42:26;7.30;;;6.60;;
36315;SDS011;22343;50.820;2.666;2023-06-10T12:45:12;6.85;;;6.15;;
36315;SDS011;22343;50.820;2.666;2023-06-10T12:48:07;7.50;;;6.30;;
36315;SDS011;22343;50.820;2.666;2023-06-10T12:51:02;7.00;;;6.28;;
36315;SDS011;22343;50.820;2.666;2023-06-10T12:53:47;7.28;;;6.18;;
36315;SDS011;22343;50.820;2.666;2023-06-10T12:56:32;6.47;;;5.88;;
36315;SDS011;22343;50.820;2.666;2023-06-10T12:59:18;6.72;;;6.13;;
36315;SDS011;22343;50.820;2.666;2023-06-10T13:02:05;8.23;;;6.20;;
36315;SDS011;22343;50.820;2.666;2023-06-10T13:04:51;7.28;;;6.32;;
36315;SDS011;22343;50.820;2.666;2023-06-10T13:07:36;6.93;;;6.22;;
36315;SDS011;22343;50.820;2.666;2023-06-10T13:10:21;8.23;;;6.32;;
36315;SDS011;22343;50.820;2.666;2023-06-10T13:13:07;6.80;;;6.20;;
36315;SDS011;22343;50.820;2.666;2023-06-10T13:15:54;6.90;;;6.30;;
36315;SDS011;22343;50.820;2.666;2023-06-10T13:18:40;7.15;;;6.53;;
36315;SDS011;22343;50.820;2.666;2023-06-10T13:21:27;7.28;;;6.50;;
36315;SDS011;22343;50.820;2.666;2023-06-10T13:24:13;6.80;;;6.20;;
36315;SDS011;22343;50.820;2.666;2023-06-10T13:26:57;8.07;;;6.80;;
36315;SDS011;22343;50.820;2.666;2023-06-10T13:29:43;7.30;;;6.53;;
36315;SDS011;22343;50.820;2.666;2023-06-10T13:32:28;6.97;;;6.38;;
36315;SDS011;22343;50.820;2.666;2023-06-10T13:35:14;6.85;;;6.25;;
36315;SDS011;22343;50.820;2.666;2023-06-10T13:37:58;7.18;;;6.10;;
36315;SDS011;22343;50.820;2.666;2023-06-10T13:40:43;7.28;;;6.57;;
36315;SDS011;22343;50.820;2.666;2023-06-10T13:43:29;7.47;;;6.75;;
36315;SDS011;22343;50.820;2.666;2023-06-10T13:46:16;7.00;;;6.50;;
36315;SDS011;22343;50.820;2.666;2023-06-10T13:49:00;7.07;;;6.38;;
36315;SDS011;22343;50.820;2.666;2023-06-10T13:51:46;7.05;;;6.13;;
36315;SDS011;22343;50.820;2.666;2023-06-10T13:54:31;6.85;;;6.25;;
36315;SDS011;22343;50.820;2.666;2023-06-10T13:57:16;7.40;;;6.70;;
36315;SDS011;22343;50.820;2.666;2023-06-10T14:00:01;7.20;;;6.60;;
36315;SDS011;22343;50.820;2.666;2023-06-10T14:02:47;7.03;;;6.43;;
36315;SDS011;22343;50.820;2.666;2023-06-10T14:05:31;6.93;;;6.32;;
36315;SDS011;22343;50.820;2.666;2023-06-10T14:08:17;7.32;;;6.63;;
36315;SDS011;22343;50.820;2.666;2023-06-10T14:11:01;7.35;;;6.65;;
36315;SDS011;22343;50.820;2.666;2023-06-10T14:13:47;7.70;;;6.45;;
36315;SDS011;22343;50.820;2.666;2023-06-10T14:16:32;6.95;;;6.28;;
36315;SDS011;22343;50.820;2.666;2023-06-10T14:19:17;7.50;;;6.78;;
36315;SDS011;22343;50.820;2.666;2023-06-10T14:22:01;7.60;;;6.80;;
36315;SDS011;22343;50.820;2.666;2023-06-10T14:24:46;7.75;;;7.05;;
36315;SDS011;22343;50.820;2.666;2023-06-10T14:27:32;7.13;;;6.53;;
36315;SDS011;22343;50.820;2.666;2023-06-10T14:30:17;9.35;;;8.45;;
36315;SDS011;22343;50.820;2.666;2023-06-10T14:33:02;7.57;;;6.80;;
36315;SDS011;22343;50.820;2.666;2023-06-10T14:35:48;9.00;;;8.10;;
36315;SDS011;22343;50.820;2.666;2023-06-10T14:38:34;7.15;;;6.55;;
36315;SDS011;22343;50.820;2.666;2023-06-10T14:41:18;9.50;;;7.18;;
36315;SDS011;22343;50.820;2.666;2023-06-10T14:44:03;7.90;;;7.20;;
36315;SDS011;22343;50.820;2.666;2023-06-10T14:46:49;7.38;;;6.70;;
36315;SDS011;22343;50.820;2.666;2023-06-10T14:49:34;7.30;;;6.70;;
36315;SDS011;22343;50.820;2.666;2023-06-10T14:52:20;7.78;;;7.05;;
36315;SDS011;22343;50.820;2.666;2023-06-10T14:55:06;7.57;;;6.88;;
36315;SDS011;22343;50.820;2.666;2023-06-10T14:57:50;7.60;;;6.80;;
36315;SDS011;22343;50.820;2.666;2023-06-10T15:00:38;7.57;;;6.97;;
36315;SDS011;22343;50.820;2.666;2023-06-10T15:03:23;8.05;;;7.00;;
36315;SDS011;22343;50.820;2.666;2023-06-10T15:06:08;7.30;;;6.70;;
36315;SDS011;22343;50.820;2.666;2023-06-10T15:08:53;7.45;;;6.75;;
36315;SDS011;22343;50.820;2.666;2023-06-10T15:11:39;7.55;;;6.85;;
36315;SDS011;22343;50.820;2.666;2023-06-10T15:14:24;7.35;;;6.65;;
36315;SDS011;22343;50.820;2.666;2023-06-10T15:17:09;7.18;;;6.57;;
36315;SDS011;22343;50.820;2.666;2023-06-10T15:19:53;7.57;;;6.88;;
36315;SDS011;22343;50.820;2.666;2023-06-10T15:22:39;7.03;;;6.32;;
36315;SDS011;22343;50.820;2.666;2023-06-10T15:25:24;7.03;;;6.40;;
36315;SDS011;22343;50.820;2.666;2023-06-10T15:28:08;7.30;;;6.70;;
36315;SDS011;22343;50.820;2.666;2023-06-10T15:30:54;6.90;;;6.30;;
36315;SDS011;22343;50.820;2.666;2023-06-10T15:33:39;6.97;;;6.38;;
36315;SDS011;22343;50.820;2.666;2023-06-10T15:36:26;7.07;;;6.47;;
36315;SDS011;22343;50.820;2.666;2023-06-10T15:39:12;6.95;;;6.22;;
36315;SDS011;22343;50.820;2.666;2023-06-10T15:41:58;7.15;;;6.47;;
36315;SDS011;22343;50.820;2.666;2023-06-10T15:44:42;7.03;;;6.32;;
36315;SDS011;22343;50.820;2.666;2023-06-10T15:47:28;7.13;;;6.40;;
36315;SDS011;22343;50.820;2.666;2023-06-10T15:50:14;7.20;;;6.60;;
36315;SDS011;22343;50.820;2.666;2023-06-10T15:52:58;7.15;;;6.43;;
36315;SDS011;22343;50.820;2.666;2023-06-10T15:55:44;7.20;;;6.50;;
36315;SDS011;22343;50.820;2.666;2023-06-10T15:58:29;7.00;;;6.30;;
36315;SDS011;22343;50.820;2.666;2023-06-10T16:01:14;7.20;;;6.50;;
36315;SDS011;22343;50.820;2.666;2023-06-10T16:03:59;6.95;;;6.07;;
36315;SDS011;22343;50.820;2.666;2023-06-10T16:06:43;7.40;;;6.80;;
36315;SDS011;22343;50.820;2.666;2023-06-10T16:09:28;7.50;;;6.80;;
36315;SDS011;22343;50.820;2.666;2023-06-10T16:12:12;7.45;;;6.70;;
36315;SDS011;22343;50.820;2.666;2023-06-10T16:14:57;7.55;;;6.75;;
36315;SDS011;22343;50.820;2.666;2023-06-10T16:17:41;7.35;;;6.53;;
36315;SDS011;22343;50.820;2.666;2023-06-10T16:20:26;7.25;;;6.55;;
36315;SDS011;22343;50.820;2.666;2023-06-10T16:23:12;7.88;;;6.75;;
36315;SDS011;22343;50.820;2.666;2023-06-10T16:25:57;6.90;;;6.28;;
36315;SDS011;22343;50.820;2.666;2023-06-10T16:28:42;7.20;;;6.50;;
36315;SDS011;22343;50.820;2.666;2023-06-10T16:31:26;7.00;;;6.40;;
36315;SDS011;22343;50.820;2.666;2023-06-10T16:34:10;6.82;;;6.22;;
36315;SDS011;22343;50.820;2.666;2023-06-10T16:36:56;6.97;;;6.28;;
36315;SDS011;22343;50.820;2.666;2023-06-10T16:39:40;8.77;;;6.70;;
36315;SDS011;22343;50.820;2.666;2023-06-10T16:42:26;7.32;;;6.60;;